Time;durP1;ratioP1;P1;durP2;ratioP2;P2;SDS_P1;SDS_P2;PMS_P1;PMS_P2;Temp;Humidity;BMP_temperature;BMP_pressure;BME280_temperature;BME280_humidity;BME280_pressure;Samples;Min_cycle;Max_cycle;Signal;HPM_P1;HPM_P2
2022/09/29 00:00:25;;;;;;;55.13;21.42;;;;;;;;;;4966259;28;20243;-73
2022/09/29 00:02:52;;;;;;;45.22;19.17;;;;;;;;;;4971834;28;20035;-73
2022/09/29 00:05:18;;;;;;;41.72;20.00;;;;;;;;;;4967033;28;20124;-74
2022/09/29 00:07:44;;;;;;;41.97;19.80;;;;;;;;;;4969565;28;20049;-73
2022/09/29 00:10:10;;;;;;;43.42;20.40;;;;;;;;;;4970070;28;20027;-75
2022/09/29 00:12:36;;;;;;;61.33;21.40;;;;;;;;;;4968714;28;20038;-73
2022/09/29 00:15:02;;;;;;;49.50;21.35;;;;;;;;;;4966061;28;20086;-73
2022/09/29 00:17:30;;;;;;;42.97;21.00;;;;;;;;;;4999555;28;20044;-74
2022/09/29 00:19:56;;;;;;;48.42;22.13;;;;;;;;;;4965161;28;20049;-73
2022/09/29 00:22:22;;;;;;;50.60;23.23;;;;;;;;;;4968455;28;20464;-73
2022/09/29 00:24:48;;;;;;;63.28;25.33;;;;;;;;;;4968375;28;20031;-73
2022/09/29 00:27:15;;;;;;;50.33;23.50;;;;;;;;;;4967347;28;20121;-73
2022/09/29 00:29:41;;;;;;;47.17;22.88;;;;;;;;;;4967689;28;20035;-75
2022/09/29 00:32:07;;;;;;;49.92;22.90;;;;;;;;;;4967128;28;20034;-74
2022/09/29 00:34:33;;;;;;;47.50;23.88;;;;;;;;;;4967217;28;20062;-72
2022/09/29 00:36:59;;;;;;;49.40;23.48;;;;;;;;;;4962540;28;20062;-73
2022/09/29 00:39:25;;;;;;;36.92;20.75;;;;;;;;;;4967415;28;20399;-73
2022/09/29 00:41:51;;;;;;;50.78;22.77;;;;;;;;;;4967461;28;20027;-73
2022/09/29 00:44:20;;;;;;;46.17;21.05;;;;;;;;;;4968052;28;20042;-74
2022/09/29 00:46:52;;;;;;;34.65;19.05;;;;;;;;;;4967581;28;20038;-73
2022/09/29 00:49:25;;;;;;;42.33;20.73;;;;;;;;;;4982592;28;20503;-73
2022/09/29 00:52:09;;;;;;;51.33;21.90;;;;;;;;;;4967178;28;20518;-73
2022/09/29 00:54:38;;;;;;;30.52;16.02;;;;;;;;;;4967676;28;20035;-72
2022/09/29 00:57:05;;;;;;;28.75;15.75;;;;;;;;;;4965360;28;20109;-73
2022/09/29 00:59:33;;;;;;;24.25;15.77;;;;;;;;;;4969835;28;20476;-73
2022/09/29 01:01:59;;;;;;;20.10;14.18;;;;;;;;;;4965069;28;20030;-72
2022/09/29 01:04:25;;;;;;;23.02;15.07;;;;;;;;;;4967622;28;20023;-72
2022/09/29 01:06:54;;;;;;;21.00;13.80;;;;;;;;;;4967276;28;20034;-73
2022/09/29 01:09:22;;;;;;;21.75;14.75;;;;;;;;;;4970152;28;20097;-72
2022/09/29 01:11:48;;;;;;;21.20;13.60;;;;;;;;;;4966797;28;20476;-73
2022/09/29 01:14:15;;;;;;;26.35;15.05;;;;;;;;;;4968688;28;20042;-73
2022/09/29 01:16:42;;;;;;;52.85;25.38;;;;;;;;;;4968284;28;20085;-73
2022/09/29 01:19:11;;;;;;;77.57;31.52;;;;;;;;;;4965387;28;20023;-73
2022/09/29 01:21:50;;;;;;;74.53;32.88;;;;;;;;;;4980978;28;20034;-74
2022/09/29 01:24:16;;;;;;;82.60;33.33;;;;;;;;;;4967229;28;20035;-73
2022/09/29 01:26:48;;;;;;;91.78;36.88;;;;;;;;;;4969467;28;20084;-74
2022/09/29 01:29:27;;;;;;;96.28;36.58;;;;;;;;;;4968745;28;20111;-74
2022/09/29 01:31:55;;;;;;;91.97;36.92;;;;;;;;;;4965255;28;20444;-73
2022/09/29 01:34:21;;;;;;;103.47;38.90;;;;;;;;;;4969614;28;20038;-74
2022/09/29 01:37:01;;;;;;;93.90;38.97;;;;;;;;;;4966195;28;20035;-74
2022/09/29 01:39:30;;;;;;;93.25;37.13;;;;;;;;;;4967556;28;20190;-74
2022/09/29 01:41:59;;;;;;;98.90;38.38;;;;;;;;;;4965693;28;20266;-75
2022/09/29 01:44:37;;;;;;;119.78;36.30;;;;;;;;;;4968345;28;20132;-75
2022/09/29 01:47:09;;;;;;;89.95;34.75;;;;;;;;;;4964157;28;20039;-74
2022/09/29 01:49:38;;;;;;;90.47;35.13;;;;;;;;;;4966448;28;20065;-74
2022/09/29 01:52:09;;;;;;;102.60;37.92;;;;;;;;;;4965774;28;20124;-73
2022/09/29 01:54:57;;;;;;;100.72;37.20;;;;;;;;;;4978906;28;20081;-74
2022/09/29 01:57:23;;;;;;;86.00;32.40;;;;;;;;;;4979053;28;20532;-73
2022/09/29 02:00:09;;;;;;;83.38;32.13;;;;;;;;;;4966247;28;20315;-73
2022/09/29 02:02:47;;;;;;;95.88;36.80;;;;;;;;;;4968804;28;20105;-73
2022/09/29 02:05:15;;;;;;;90.10;34.28;;;;;;;;;;4965491;28;20027;-73
2022/09/29 02:07:44;;;;;;;82.45;34.90;;;;;;;;;;4965822;28;20082;-73
2022/09/29 02:10:13;;;;;;;86.22;33.58;;;;;;;;;;4966498;28;20030;-74
2022/09/29 02:12:42;;;;;;;96.65;35.50;;;;;;;;;;4965565;28;20034;-74
2022/09/29 02:15:10;;;;;;;103.45;36.78;;;;;;;;;;4965317;28;20404;-74
2022/09/29 02:17:38;;;;;;;106.93;38.03;;;;;;;;;;4965976;28;20058;-74
2022/09/29 02:20:04;;;;;;;93.85;37.17;;;;;;;;;;4963755;28;20082;-74
2022/09/29 02:22:31;;;;;;;106.25;38.85;;;;;;;;;;4981016;28;20581;-74
2022/09/29 02:24:58;;;;;;;106.78;36.38;;;;;;;;;;4976027;28;20027;-74
2022/09/29 02:27:27;;;;;;;90.05;36.05;;;;;;;;;;4967554;28;20089;-74
2022/09/29 02:29:53;;;;;;;98.38;38.45;;;;;;;;;;4966480;28;20035;-72
2022/09/29 02:32:20;;;;;;;100.00;36.08;;;;;;;;;;4966044;28;20122;-73
2022/09/29 02:34:48;;;;;;;76.18;33.85;;;;;;;;;;4965890;28;20225;-73
2022/09/29 02:37:32;;;;;;;103.68;34.20;;;;;;;;;;4981040;28;20106;-72
2022/09/29 02:40:13;;;;;;;206.15;32.95;;;;;;;;;;4962249;28;20023;-73
2022/09/29 02:42:43;;;;;;;120.45;28.98;;;;;;;;;;4978481;28;20033;-73
2022/09/29 02:45:28;;;;;;;87.32;28.08;;;;;;;;;;4965005;28;20019;-73
2022/09/29 02:48:03;;;;;;;60.67;25.35;;;;;;;;;;4970028;28;20041;-73
2022/09/29 02:50:42;;;;;;;68.70;27.73;;;;;;;;;;4969912;28;20046;-72
2022/09/29 02:53:11;;;;;;;65.85;28.02;;;;;;;;;;4968458;28;20511;-72
2022/09/29 02:55:56;;;;;;;81.78;30.77;;;;;;;;;;4970891;28;20522;-73
2022/09/29 02:58:31;;;;;;;78.57;30.92;;;;;;;;;;4970472;28;20018;-73
2022/09/29 03:00:58;;;;;;;86.72;33.83;;;;;;;;;;4964525;28;21218;-73
2022/09/29 03:03:24;;;;;;;103.57;36.65;;;;;;;;;;4979833;28;20118;-74
2022/09/29 03:05:50;;;;;;;95.40;36.65;;;;;;;;;;4969205;28;20396;-73
2022/09/29 03:08:16;;;;;;;96.40;35.20;;;;;;;;;;4969940;28;20556;-73
2022/09/29 03:10:42;;;;;;;93.28;33.17;;;;;;;;;;4969738;28;20130;-73
2022/09/29 03:13:09;;;;;;;93.53;35.67;;;;;;;;;;4968643;28;20026;-73
2022/09/29 03:15:35;;;;;;;99.22;37.30;;;;;;;;;;4967441;28;20090;-73
2022/09/29 03:18:03;;;;;;;90.63;35.20;;;;;;;;;;4974814;28;20030;-72
2022/09/29 03:20:29;;;;;;;98.38;38.13;;;;;;;;;;4970387;28;20022;-74
2022/09/29 03:22:55;;;;;;;106.68;37.42;;;;;;;;;;4968592;28;20093;-73
2022/09/29 03:25:23;;;;;;;99.32;38.03;;;;;;;;;;4969989;28;20026;-74
2022/09/29 03:27:49;;;;;;;108.22;36.63;;;;;;;;;;4968545;28;20027;-73
2022/09/29 03:30:16;;;;;;;154.52;35.28;;;;;;;;;;4967615;28;20468;-74
2022/09/29 03:32:44;;;;;;;186.10;35.28;;;;;;;;;;4967670;28;20035;-74
2022/09/29 03:35:11;;;;;;;158.68;35.80;;;;;;;;;;4968118;28;20146;-74
2022/09/29 03:37:37;;;;;;;83.57;30.85;;;;;;;;;;4969602;28;20105;-74
2022/09/29 03:40:05;;;;;;;119.00;31.73;;;;;;;;;;4973644;28;20039;-74
2022/09/29 03:42:31;;;;;;;84.88;30.23;;;;;;;;;;4970180;28;20023;-74
2022/09/29 03:44:57;;;;;;;68.07;29.02;;;;;;;;;;4968352;28;20035;-73
2022/09/29 03:47:23;;;;;;;83.03;32.30;;;;;;;;;;4969787;28;20070;-73
2022/09/29 03:49:49;;;;;;;93.22;35.58;;;;;;;;;;4969213;28;20081;-74
2022/09/29 03:52:15;;;;;;;104.75;38.88;;;;;;;;;;4965341;28;20106;-73
2022/09/29 03:54:41;;;;;;;125.28;40.28;;;;;;;;;;4969413;28;20039;-74
2022/09/29 03:57:07;;;;;;;106.18;38.15;;;;;;;;;;4966980;28;20049;-73
2022/09/29 03:59:33;;;;;;;103.03;37.35;;;;;;;;;;4970707;28;20031;-73
2022/09/29 04:01:59;;;;;;;115.28;38.05;;;;;;;;;;4968179;28;20019;-74
2022/09/29 04:04:25;;;;;;;107.63;38.40;;;;;;;;;;4967388;28;20031;-74
2022/09/29 04:06:51;;;;;;;106.13;39.38;;;;;;;;;;4966881;28;20030;-74
2022/09/29 04:09:17;;;;;;;93.90;38.80;;;;;;;;;;4966000;28;20027;-73
2022/09/29 04:11:43;;;;;;;107.30;40.45;;;;;;;;;;4968981;28;20062;-73
2022/09/29 04:14:09;;;;;;;113.20;40.60;;;;;;;;;;4966529;28;20027;-74
2022/09/29 04:16:35;;;;;;;91.93;40.13;;;;;;;;;;4999348;28;20488;-74
2022/09/29 04:19:01;;;;;;;117.65;41.88;;;;;;;;;;4964637;28;20133;-73
2022/09/29 04:21:27;;;;;;;114.82;44.03;;;;;;;;;;4965601;28;20030;-73
2022/09/29 04:23:53;;;;;;;106.07;42.85;;;;;;;;;;4963485;28;20488;-74
2022/09/29 04:26:19;;;;;;;105.78;41.78;;;;;;;;;;4965048;28;20034;-74
2022/09/29 04:28:45;;;;;;;107.80;41.90;;;;;;;;;;4970085;28;20085;-74
2022/09/29 04:31:11;;;;;;;135.93;44.47;;;;;;;;;;4965487;28;20023;-74
2022/09/29 04:33:39;;;;;;;126.10;41.40;;;;;;;;;;4964060;28;20050;-74
2022/09/29 04:36:05;;;;;;;137.77;44.15;;;;;;;;;;4964877;28;20019;-73
2022/09/29 04:38:31;;;;;;;130.35;43.47;;;;;;;;;;4963095;28;20106;-74
2022/09/29 04:40:57;;;;;;;147.10;44.15;;;;;;;;;;4964980;28;20154;-74
2022/09/29 04:43:23;;;;;;;128.55;45.60;;;;;;;;;;4965012;28;20030;-74
2022/09/29 04:45:49;;;;;;;123.03;42.83;;;;;;;;;;4964436;28;20059;-74
2022/09/29 04:48:15;;;;;;;460.95;54.95;;;;;;;;;;4967057;28;20031;-75
2022/09/29 04:50:42;;;;;;;210.70;39.95;;;;;;;;;;4964060;28;20129;-74
2022/09/29 04:53:09;;;;;;;144.02;35.53;;;;;;;;;;4967785;28;20034;-73
2022/09/29 04:55:36;;;;;;;139.52;34.88;;;;;;;;;;4968069;28;20062;-74
2022/09/29 04:58:03;;;;;;;172.52;38.22;;;;;;;;;;4967870;28;20493;-74
2022/09/29 05:00:30;;;;;;;137.77;37.28;;;;;;;;;;4964897;28;20053;-74
2022/09/29 05:02:57;;;;;;;166.98;39.10;;;;;;;;;;4995453;28;20031;-74
2022/09/29 05:05:23;;;;;;;195.32;41.83;;;;;;;;;;4966588;28;20089;-73
2022/09/29 05:07:49;;;;;;;171.02;42.22;;;;;;;;;;4978457;28;20257;-74
2022/09/29 05:10:15;;;;;;;289.45;48.63;;;;;;;;;;4969114;28;20027;-73
2022/09/29 05:12:46;;;;;;;256.83;42.35;;;;;;;;;;4964247;28;20035;-74
2022/09/29 05:15:12;;;;;;;321.50;53.60;;;;;;;;;;4965245;28;20104;-73
2022/09/29 05:17:38;;;;;;;232.40;46.10;;;;;;;;;;4965465;28;20504;-74
2022/09/29 05:20:04;;;;;;;152.63;40.97;;;;;;;;;;4965503;28;20069;-74
2022/09/29 05:22:31;;;;;;;106.28;38.22;;;;;;;;;;4962646;28;20050;-74
2022/09/29 05:24:57;;;;;;;115.50;38.50;;;;;;;;;;4967352;28;20773;-73
2022/09/29 05:27:23;;;;;;;117.18;41.90;;;;;;;;;;4964759;28;20065;-74
2022/09/29 05:29:49;;;;;;;91.93;37.00;;;;;;;;;;4966633;28;20085;-73
2022/09/29 05:32:14;;;;;;;108.28;39.72;;;;;;;;;;4967204;28;20224;-74
2022/09/29 05:34:40;;;;;;;105.88;40.72;;;;;;;;;;4967169;28;20041;-73
2022/09/29 05:37:07;;;;;;;144.90;41.92;;;;;;;;;;4974982;28;20023;-73
2022/09/29 05:39:33;;;;;;;126.18;42.13;;;;;;;;;;4962885;28;20028;-74
2022/09/29 05:42:01;;;;;;;109.63;44.22;;;;;;;;;;4969452;28;20035;-73
2022/09/29 05:44:27;;;;;;;130.45;44.22;;;;;;;;;;4968262;28;20180;-73
2022/09/29 05:46:53;;;;;;;113.55;42.30;;;;;;;;;;4966584;28;20563;-73
2022/09/29 05:49:19;;;;;;;142.00;46.15;;;;;;;;;;4966066;28;20045;-74
2022/09/29 05:51:45;;;;;;;126.90;46.25;;;;;;;;;;4969181;28;20512;-73
2022/09/29 05:54:11;;;;;;;144.63;48.00;;;;;;;;;;4967060;28;20023;-73
2022/09/29 05:56:38;;;;;;;138.95;48.58;;;;;;;;;;4964117;28;20402;-73
2022/09/29 05:59:04;;;;;;;118.55;46.30;;;;;;;;;;4967171;28;20039;-73
2022/09/29 06:01:31;;;;;;;102.80;42.33;;;;;;;;;;4965486;28;20043;-73
2022/09/29 06:03:57;;;;;;;107.85;41.03;;;;;;;;;;4964471;28;20042;-73
2022/09/29 06:06:25;;;;;;;124.25;43.42;;;;;;;;;;4969812;28;20027;-74
2022/09/29 06:08:51;;;;;;;126.10;47.28;;;;;;;;;;4985785;28;20037;-74
2022/09/29 06:11:22;;;;;;;140.52;50.38;;;;;;;;;;4966566;28;20097;-73
2022/09/29 06:13:49;;;;;;;135.65;49.75;;;;;;;;;;4981967;28;20389;-74
2022/09/29 06:16:15;;;;;;;155.35;53.97;;;;;;;;;;4964914;28;20033;-73
2022/09/29 06:18:41;;;;;;;202.75;58.05;;;;;;;;;;4966263;28;20030;-74
2022/09/29 06:21:12;;;;;;;117.10;47.42;;;;;;;;;;4964209;28;20026;-74
2022/09/29 06:23:38;;;;;;;116.13;48.60;;;;;;;;;;4964141;28;20106;-74
2022/09/29 06:26:06;;;;;;;149.90;50.05;;;;;;;;;;4964040;28;20031;-74
2022/09/29 06:28:32;;;;;;;190.77;58.17;;;;;;;;;;4978855;28;20037;-74
2022/09/29 06:30:59;;;;;;;208.52;65.22;;;;;;;;;;4969986;28;20477;-74
2022/09/29 06:33:25;;;;;;;200.95;66.47;;;;;;;;;;4951658;28;20031;-73
2022/09/29 06:38:36;;;;;;;219.30;68.38;;;;;;;;;;4965099;28;20053;-74
2022/09/29 06:41:02;;;;;;;224.10;69.20;;;;;;;;;;4972581;28;20038;-74
2022/09/29 06:43:28;;;;;;;184.77;63.53;;;;;;;;;;4985791;28;20030;-74
2022/09/29 06:45:54;;;;;;;240.82;66.18;;;;;;;;;;4970573;28;20031;-74
2022/09/29 06:48:20;;;;;;;156.85;58.78;;;;;;;;;;4990742;28;20077;-74
2022/09/29 06:50:47;;;;;;;206.25;63.85;;;;;;;;;;4984739;28;20051;-72
2022/09/29 06:53:13;;;;;;;286.15;70.97;;;;;;;;;;4970382;28;20106;-73
2022/09/29 06:55:39;;;;;;;277.52;73.82;;;;;;;;;;4970295;28;20043;-72
2022/09/29 06:58:05;;;;;;;130.85;54.28;;;;;;;;;;4974634;28;20464;-73
2022/09/29 07:00:34;;;;;;;118.68;50.42;;;;;;;;;;4988828;28;20081;-72
2022/09/29 07:03:00;;;;;;;96.65;46.97;;;;;;;;;;4990043;28;20022;-72
2022/09/29 07:05:27;;;;;;;111.60;48.53;;;;;;;;;;4978593;28;20436;-72
2022/09/29 07:07:54;;;;;;;118.88;47.78;;;;;;;;;;4970446;28;20448;-72
2022/09/29 07:10:21;;;;;;;103.72;48.70;;;;;;;;;;4986064;28;20066;-73
2022/09/29 07:12:47;;;;;;;102.55;48.70;;;;;;;;;;5004814;28;20108;-73
2022/09/29 07:15:13;;;;;;;99.47;48.97;;;;;;;;;;4977483;28;20035;-73
2022/09/29 07:17:39;;;;;;;106.57;49.38;;;;;;;;;;4970289;28;20505;-73
2022/09/29 07:20:06;;;;;;;95.03;49.95;;;;;;;;;;4969679;28;20122;-73
2022/09/29 07:22:32;;;;;;;109.18;52.35;;;;;;;;;;4969312;28;20038;-72
2022/09/29 07:24:58;;;;;;;113.75;53.47;;;;;;;;;;4968641;28;20035;-72
2022/09/29 07:27:24;;;;;;;107.30;53.15;;;;;;;;;;4970563;28;20047;-72
2022/09/29 07:29:50;;;;;;;110.10;52.40;;;;;;;;;;4970737;28;20190;-72
2022/09/29 07:32:17;;;;;;;97.50;51.22;;;;;;;;;;4973184;28;20031;-72
2022/09/29 07:34:43;;;;;;;116.25;54.90;;;;;;;;;;4986020;28;20511;-73
2022/09/29 07:37:09;;;;;;;106.97;55.28;;;;;;;;;;4973194;28;20509;-74
2022/09/29 07:39:35;;;;;;;133.27;61.47;;;;;;;;;;4973971;28;20039;-73
2022/09/29 07:42:02;;;;;;;124.53;58.95;;;;;;;;;;4973784;28;20041;-72
2022/09/29 07:44:29;;;;;;;132.77;65.18;;;;;;;;;;4972700;28;20083;-73
2022/09/29 07:46:55;;;;;;;132.20;66.05;;;;;;;;;;4984294;28;20034;-73
2022/09/29 07:49:21;;;;;;;128.57;64.85;;;;;;;;;;4992870;28;20101;-73
2022/09/29 07:51:47;;;;;;;124.88;64.80;;;;;;;;;;4992419;28;20543;-72
2022/09/29 07:54:13;;;;;;;118.88;61.83;;;;;;;;;;4989724;28;20057;-72
2022/09/29 07:56:39;;;;;;;101.05;57.92;;;;;;;;;;4960969;28;20046;-71
2022/09/29 07:59:05;;;;;;;93.55;56.42;;;;;;;;;;5007367;28;20030;-72
2022/09/29 08:01:32;;;;;;;87.47;52.17;;;;;;;;;;4985891;28;20104;-73
2022/09/29 08:03:58;;;;;;;62.40;40.10;;;;;;;;;;4989342;28;20456;-73
2022/09/29 08:06:25;;;;;;;60.28;39.17;;;;;;;;;;4974460;28;20034;-73
2022/09/29 08:08:51;;;;;;;49.22;35.30;;;;;;;;;;4971626;28;20031;-72
2022/09/29 08:11:21;;;;;;;49.20;31.75;;;;;;;;;;4986519;28;20056;-73
2022/09/29 08:13:50;;;;;;;35.17;25.40;;;;;;;;;;4991732;28;20027;-73
2022/09/29 08:16:16;;;;;;;37.83;25.65;;;;;;;;;;4953449;29;20032;-73
2022/09/29 08:18:43;;;;;;;36.70;25.90;;;;;;;;;;4953623;28;20071;-74
2022/09/29 08:21:10;;;;;;;49.17;24.90;;;;;;;;;;4953568;29;20057;-73
2022/09/29 08:23:37;;;;;;;32.30;25.17;;;;;;;;;;4991066;28;20042;-73
2022/09/29 08:26:05;;;;;;;33.72;26.23;;;;;;;;;;4974403;28;20038;-73
2022/09/29 08:28:31;;;;;;;31.95;25.35;;;;;;;;;;4973167;28;20035;-73
2022/09/29 08:31:01;;;;;;;29.48;23.88;;;;;;;;;;4972172;28;20038;-73
2022/09/29 08:33:27;;;;;;;32.03;24.70;;;;;;;;;;4972583;28;20031;-72
2022/09/29 08:35:59;;;;;;;38.33;24.00;;;;;;;;;;4977628;28;20042;-72
2022/09/29 08:38:26;;;;;;;28.17;22.63;;;;;;;;;;4992415;28;20026;-72
2022/09/29 08:40:54;;;;;;;25.10;19.70;;;;;;;;;;4996263;28;20408;-72
2022/09/29 08:43:29;;;;;;;23.15;18.95;;;;;;;;;;4972523;28;20477;-72
2022/09/29 08:46:01;;;;;;;29.85;17.13;;;;;;;;;;4975134;28;20058;-73
2022/09/29 08:48:28;;;;;;;20.77;14.82;;;;;;;;;;4992200;28;20061;-73
2022/09/29 08:50:58;;;;;;;25.42;15.50;;;;;;;;;;4992405;28;20090;-73
2022/09/29 08:53:26;;;;;;;17.98;15.02;;;;;;;;;;4975278;28;20147;-73
2022/09/29 08:55:54;;;;;;;30.63;14.60;;;;;;;;;;4974819;28;20042;-73
2022/09/29 08:58:21;;;;;;;22.52;14.77;;;;;;;;;;4984246;28;20523;-74
2022/09/29 09:00:57;;;;;;;17.02;14.10;;;;;;;;;;4974146;28;20404;-74
2022/09/29 09:03:43;;;;;;;23.42;15.27;;;;;;;;;;4987073;28;20027;-73
2022/09/29 09:06:30;;;;;;;31.17;14.93;;;;;;;;;;4970014;28;20035;-74
2022/09/29 09:08:59;;;;;;;26.92;16.35;;;;;;;;;;4971020;28;20043;-74
2022/09/29 09:11:26;;;;;;;17.88;14.95;;;;;;;;;;4972103;28;20030;-74
2022/09/29 09:14:15;;;;;;;33.17;15.25;;;;;;;;;;4971785;28;20031;-72
2022/09/29 09:16:50;;;;;;;25.75;15.98;;;;;;;;;;4963681;28;20050;-72
2022/09/29 09:19:42;;;;;;;22.50;15.95;;;;;;;;;;4952201;28;20481;-71
2022/09/29 09:22:21;;;;;;;23.33;17.40;;;;;;;;;;4958220;28;20040;-74
2022/09/29 09:24:50;;;;;;;27.58;17.13;;;;;;;;;;4952633;28;20074;-75
2022/09/29 09:27:21;;;;;;;29.48;18.05;;;;;;;;;;4973901;28;20030;-76
2022/09/29 09:29:49;;;;;;;26.08;18.63;;;;;;;;;;4989245;28;20023;-76
2022/09/29 09:32:20;;;;;;;26.42;17.73;;;;;;;;;;4987019;28;20035;-74
2022/09/29 09:34:46;;;;;;;;;;;;;;;;;;4972082;28;20077;-74
2022/09/29 09:37:21;;;;;;;26.73;19.85;;;;;;;;;;4984852;28;20489;-74
2022/09/29 09:39:48;;;;;;;26.88;19.25;;;;;;;;;;4970317;28;20085;-74
2022/09/29 09:42:19;;;;;;;26.63;19.10;;;;;;;;;;4971664;28;20093;-72
2022/09/29 09:44:48;;;;;;;23.73;20.00;;;;;;;;;;4985986;28;20030;-72
2022/09/29 09:47:23;;;;;;;23.10;18.75;;;;;;;;;;4977690;28;20073;-73
2022/09/29 09:49:51;;;;;;;22.17;17.48;;;;;;;;;;4971370;28;20510;-73
2022/09/29 09:52:20;;;;;;;27.88;18.17;;;;;;;;;;4971279;28;20168;-72
2022/09/29 09:54:48;;;;;;;20.92;15.85;;;;;;;;;;4983648;28;20041;-73
2022/09/29 09:57:29;;;;;;;23.17;17.05;;;;;;;;;;4953870;28;20552;-72
2022/09/29 10:00:01;;;;;;;19.90;15.93;;;;;;;;;;4952531;29;20031;-72
2022/09/29 10:02:29;;;;;;;27.17;13.48;;;;;;;;;;4987344;28;20038;-72
2022/09/29 10:04:55;;;;;;;21.45;14.15;;;;;;;;;;5002037;28;20033;-72
2022/09/29 10:07:23;;;;;;;29.20;14.98;;;;;;;;;;4971952;28;20121;-72
2022/09/29 10:09:49;;;;;;;18.67;13.90;;;;;;;;;;4991165;28;20042;-72
2022/09/29 10:12:20;;;;;;;16.08;11.45;;;;;;;;;;5006099;28;20449;-72
2022/09/29 10:14:52;;;;;;;11.18;8.13;;;;;;;;;;4980449;28;20028;-72
2022/09/29 10:17:19;;;;;;;13.93;10.35;;;;;;;;;;4962105;28;20508;-71
2022/09/29 10:19:52;;;;;;;13.45;10.35;;;;;;;;;;4990108;28;20113;-71
2022/09/29 10:22:19;;;;;;;9.27;7.50;;;;;;;;;;5005045;28;20488;-71
2022/09/29 10:24:45;;;;;;;13.13;8.88;;;;;;;;;;4973915;28;20035;-71
2022/09/29 10:27:17;;;;;;;13.63;10.63;;;;;;;;;;4969757;28;20378;-71
2022/09/29 10:29:48;;;;;;;11.18;8.93;;;;;;;;;;4970543;28;20484;-71
2022/09/29 10:32:35;;;;;;;14.75;9.27;;;;;;;;;;4970991;28;20027;-71
2022/09/29 10:35:03;;;;;;;12.02;8.63;;;;;;;;;;4985496;28;20037;-71
2022/09/29 10:37:34;;;;;;;12.20;7.72;;;;;;;;;;4970616;28;20046;-70
2022/09/29 10:40:03;;;;;;;9.55;7.53;;;;;;;;;;4970573;28;20134;-71
2022/09/29 10:42:37;;;;;;;10.63;8.55;;;;;;;;;;4970524;28;20063;-71
2022/09/29 10:45:20;;;;;;;13.35;8.95;;;;;;;;;;4969010;28;20097;-70
2022/09/29 10:48:06;;;;;;;12.20;9.00;;;;;;;;;;4963358;28;20046;-70
2022/09/29 10:50:34;;;;;;;10.80;7.72;;;;;;;;;;4970562;28;20058;-71
2022/09/29 10:53:03;;;;;;;15.68;9.00;;;;;;;;;;4970951;28;20424;-70
2022/09/29 10:55:33;;;;;;;12.85;9.10;;;;;;;;;;4984418;28;20031;-70
2022/09/29 10:58:19;;;;;;;11.50;7.85;;;;;;;;;;4969032;28;20042;-71
2022/09/29 11:00:46;;;;;;;10.23;7.88;;;;;;;;;;4971538;28;20498;-70
2022/09/29 11:03:20;;;;;;;9.07;7.25;;;;;;;;;;4986820;28;20030;-70
2022/09/29 11:05:54;;;;;;;15.98;8.68;;;;;;;;;;4983314;28;20039;-70
2022/09/29 11:08:24;;;;;;;12.10;8.77;;;;;;;;;;4974431;28;20065;-71
2022/09/29 11:11:02;;;;;;;11.90;8.88;;;;;;;;;;4979489;28;20189;-71
2022/09/29 11:13:40;;;;;;;10.82;6.88;;;;;;;;;;4993953;28;20029;-69
2022/09/29 11:16:17;;;;;;;8.85;5.45;;;;;;;;;;4984332;28;20034;-69
2022/09/29 11:18:45;;;;;;;10.13;6.80;;;;;;;;;;4973708;28;20027;-70
2022/09/29 11:21:17;;;;;;;9.98;6.65;;;;;;;;;;4974046;28;20027;-69
2022/09/29 11:23:46;;;;;;;10.77;7.30;;;;;;;;;;4984133;28;20045;-70
2022/09/29 11:26:12;;;;;;;11.13;6.85;;;;;;;;;;4992482;28;20039;-71
2022/09/29 11:28:49;;;;;;;13.20;7.43;;;;;;;;;;4973375;28;20435;-71
2022/09/29 11:31:31;;;;;;;13.15;7.47;;;;;;;;;;4974123;28;20106;-71
2022/09/29 11:33:56;;;;;;;;;;;;;;;;;;4973882;28;20488;-71
2022/09/29 11:36:46;;;;;;;8.02;5.20;;;;;;;;;;4988330;28;20005;-70
2022/09/29 11:39:18;;;;;;;8.90;5.20;;;;;;;;;;4973590;28;20026;-70
2022/09/29 11:41:51;;;;;;;11.63;5.35;;;;;;;;;;4973260;28;20503;-70
2022/09/29 11:44:33;;;;;;;9.00;5.15;;;;;;;;;;4973064;28;20027;-69
2022/09/29 11:47:05;;;;;;;8.52;5.43;;;;;;;;;;4986240;28;20502;-71
2022/09/29 11:49:34;;;;;;;7.10;5.03;;;;;;;;;;4972460;28;20507;-70
2022/09/29 11:52:00;;;;;;;9.00;5.80;;;;;;;;;;4967631;28;20061;-70
2022/09/29 11:54:29;;;;;;;8.07;6.07;;;;;;;;;;4972757;28;20484;-70
2022/09/29 11:56:58;;;;;;;10.35;5.57;;;;;;;;;;4987818;28;20452;-72
2022/09/29 11:59:33;;;;;;;8.82;5.57;;;;;;;;;;4993222;28;20100;-70
2022/09/29 12:02:18;;;;;;;9.43;5.75;;;;;;;;;;4988883;28;20035;-71
2022/09/29 12:04:56;;;;;;;9.55;5.60;;;;;;;;;;4979848;28;20023;-71
2022/09/29 12:07:39;;;;;;;6.97;4.68;;;;;;;;;;4975614;28;20444;-71
2022/09/29 12:10:14;;;;;;;6.20;4.22;;;;;;;;;;4993299;28;20014;-70
2022/09/29 12:12:55;;;;;;;9.18;4.35;;;;;;;;;;4993688;28;20034;-69
2022/09/29 12:15:38;;;;;;;40.42;5.72;;;;;;;;;;4974915;28;20038;-71
2022/09/29 12:18:10;;;;;;;5.80;4.25;;;;;;;;;;4976589;28;20026;-70
2022/09/29 12:20:38;;;;;;;6.05;4.30;;;;;;;;;;4981164;28;20034;-70
2022/09/29 12:23:09;;;;;;;5.90;4.35;;;;;;;;;;4980228;28;20519;-70
2022/09/29 12:25:37;;;;;;;4.97;3.90;;;;;;;;;;4973159;28;20039;-70
2022/09/29 12:28:12;;;;;;;9.52;4.75;;;;;;;;;;4972807;28;20095;-71
2022/09/29 12:30:44;;;;;;;5.50;3.53;;;;;;;;;;4977171;28;20030;-71
2022/09/29 12:33:22;;;;;;;6.47;4.30;;;;;;;;;;4981973;28;20129;-71
2022/09/29 12:35:48;;;;;;;10.30;4.47;;;;;;;;;;4971971;28;20023;-70
2022/09/29 12:38:37;;;;;;;23.02;4.82;;;;;;;;;;4972620;28;20045;-70
2022/09/29 12:41:25;;;;;;;8.13;4.63;;;;;;;;;;4970836;28;20031;-71
2022/09/29 12:43:58;;;;;;;6.80;4.50;;;;;;;;;;4969762;28;20034;-70
2022/09/29 12:46:35;;;;;;;7.15;4.10;;;;;;;;;;4986665;28;20061;-71
2022/09/29 12:49:05;;;;;;;7.90;4.35;;;;;;;;;;4984058;28;20119;-70
2022/09/29 12:51:50;;;;;;;6.63;3.88;;;;;;;;;;4991943;28;20085;-71
2022/09/29 12:54:31;;;;;;;8.20;4.38;;;;;;;;;;4976671;28;20038;-70
2022/09/29 12:57:03;;;;;;;16.50;4.60;;;;;;;;;;4992464;28;20034;-70
2022/09/29 12:59:29;;;;;;;7.80;4.70;;;;;;;;;;4992206;28;20038;-70
2022/09/29 13:01:56;;;;;;;8.23;5.35;;;;;;;;;;4972646;28;20030;-70
2022/09/29 13:04:22;;;;;;;9.63;4.63;;;;;;;;;;4972377;28;20023;-71
2022/09/29 13:07:00;;;;;;;9.45;3.78;;;;;;;;;;4972322;28;20748;-69
2022/09/29 13:09:35;;;;;;;4.07;2.88;;;;;;;;;;4983893;28;20041;-70
2022/09/29 13:12:20;;;;;;;4.75;2.70;;;;;;;;;;4972413;28;20035;-70
2022/09/29 13:14:46;;;;;;;17.38;3.13;;;;;;;;;;4970700;28;20041;-70
2022/09/29 13:17:22;;;;;;;4.45;3.00;;;;;;;;;;4974376;28;20022;-70
2022/09/29 13:19:57;;;;;;;3.97;2.70;;;;;;;;;;4985600;28;20500;-70
2022/09/29 13:22:29;;;;;;;3.90;2.50;;;;;;;;;;4972588;28;20510;-71
2022/09/29 13:25:14;;;;;;;9.13;2.15;;;;;;;;;;4970953;28;20061;-70
2022/09/29 13:27:44;;;;;;;4.60;1.70;;;;;;;;;;4972426;28;20477;-70
2022/09/29 13:30:16;;;;;;;6.47;1.90;;;;;;;;;;4971343;28;20122;-70
2022/09/29 13:32:46;;;;;;;15.00;2.90;;;;;;;;;;4971975;28;20034;-70
2022/09/29 13:35:16;;;;;;;5.82;2.58;;;;;;;;;;4970431;28;20073;-70
2022/09/29 13:37:53;;;;;;;4.22;1.77;;;;;;;;;;4971097;28;20102;-70
2022/09/29 13:40:24;;;;;;;3.30;1.40;;;;;;;;;;4971738;28;20483;-70
2022/09/29 13:42:54;;;;;;;;;;;;;;;;;;4970445;28;20026;-70
2022/09/29 13:45:20;;;;;;;2.43;1.20;;;;;;;;;;4969783;28;19910;-69
2022/09/29 13:47:49;;;;;;;5.13;1.83;;;;;;;;;;4990222;28;20046;-69
2022/09/29 13:50:34;;;;;;;6.68;0.95;;;;;;;;;;4971975;28;20061;-69
2022/09/29 13:53:19;;;;;;;4.43;0.50;;;;;;;;;;4972167;28;20081;-70
2022/09/29 13:55:55;;;;;;;3.50;0.52;;;;;;;;;;4964117;28;20096;-70
2022/09/29 13:58:37;;;;;;;11.35;0.88;;;;;;;;;;5006290;28;20427;-70
2022/09/29 14:01:07;;;;;;;1.13;0.30;;;;;;;;;;4990628;28;20034;-70
2022/09/29 14:03:38;;;;;;;0.50;0.30;;;;;;;;;;5006040;28;20542;-70
2022/09/29 14:06:04;;;;;;;;;;;;;;;;;;4971986;28;20039;-70
2022/09/29 14:08:35;;;;;;;0.65;0.35;;;;;;;;;;4981071;28;19905;-72
2022/09/29 14:11:11;;;;;;;5.13;0.80;;;;;;;;;;4981763;28;20041;-70
2022/09/29 14:13:44;;;;;;;2.30;0.40;;;;;;;;;;4971562;28;20488;-71
2022/09/29 14:16:28;;;;;;;0.85;0.30;;;;;;;;;;4971138;28;20568;-69
2022/09/29 14:19:15;;;;;;;1.45;0.60;;;;;;;;;;4968991;28;20038;-70
2022/09/29 14:21:45;;;;;;;3.50;0.32;;;;;;;;;;4979994;28;20043;-69
2022/09/29 14:24:30;;;;;;;6.80;0.60;;;;;;;;;;4969198;28;20026;-70
2022/09/29 14:27:13;;;;;;;1.20;0.50;;;;;;;;;;4964863;28;20031;-70
2022/09/29 14:29:44;;;;;;;2.88;0.55;;;;;;;;;;4963967;28;20181;-70
2022/09/29 14:32:14;;;;;;;0.90;0.40;;;;;;;;;;4966871;28;20121;-70
2022/09/29 14:34:40;;;;;;;1.33;0.40;;;;;;;;;;4968993;28;20111;-70
2022/09/29 14:37:14;;;;;;;8.80;0.70;;;;;;;;;;4971294;28;20034;-70
2022/09/29 14:39:40;;;;;;;1.92;0.60;;;;;;;;;;4970352;28;20058;-71